Galesburg, IL (61401)

5:05 AM CST on February 09, 2016 (GMT -0600)
N9VPV | | Change Station
CLOSE
Current Station
Personal Weather Station
Location: Galesburg, IL
Elevation: 777 ft
Nearby Weather Stations

Elev 777 ft 40.95 °N, 90.39 °W | Updated 33 seconds ago

Snow
Snow
14.4 °F
Feels Like 8 °F
N
4.0
Wind Variable Wind from WNW
Gusts 5.0 mph

Today
High -- | Low -- °F
--% Chance of Precip.
Yesterday
High -- | Low -- °F
Precip. -- in
Pressure 29.87 in
Visibility 5.0 miles
Clouds Scattered Clouds 1600 ft
Mostly Cloudy 2000 ft
Overcast 2700 ft
Windchill 8 °F
Dew Point 11 °F
Humidity 87%
Rainfall 0.00 in
Snow Depth Not available.
7:03 AM 5:28 PM
New Moon, 1% visible
METAR KGBG 091055Z AUTO 30012G17KT 5SM -SN SCT016 BKN020 OVC027 M09/M11 A2987 RMK AO2 T10951115
Pressure 29.87 in
Visibility 5.0 miles
Clouds Scattered Clouds 1600 ft
Mostly Cloudy 2000 ft
Overcast 2700 ft
Windchill 8 °F
Dew Point 11 °F
Humidity 87%
Rainfall 0.00 in
Snow Depth Not available.
7:03 AM 5:28 PM
New Moon, 1% visible
METAR KGBG 091055Z AUTO 30012G17KT 5SM -SN SCT016 BKN020 OVC027 M09/M11 A2987 RMK AO2 T10951115

10-Day Weather Forecast

Almanac

Astronomy

Feb. 09, 2016 Rise Set
Actual Time
Civil Twilight
Nautical Twilight
Astronomical Twilight
Moon
Length of Visible Light
Length of Day
Tomorrow will be .
, % of the Moon is Illuminated

Today's Extremes

State Highs State Lows

Community

WunderPhotos

Upload Photos

1,891,565 photos uploaded!

WunderBlog® & News

Nearby

Air Quality

  Air Quality AQ Index Pollutant
Not available.

Snow Depth

Station Depth Elevation

Earthquake Activity

City Distance Mag. Time & Date
Minimum magnitude displayed is 2.5.

Coastal Water Temperatures

Place Temperature

Stations

Nearby Weather Stations

Station Location Temp. Windchill Dew Point Humidity Wind Precip. Elev Updated Type
                   

Watches & Warnings

There are currently no watches in effect.